Date,TemperatureHighF,TemperatureAvgF,TemperatureLowF,DewpointHighF,DewpointAvgF,DewpointLowF,HumidityHigh,HumidityAvg,HumidityLow,PressureMaxIn,PressureMinIn,WindSpeedMaxMPH,WindSpeedAvgMPH,GustSpeedMaxMPH,PrecipitationSumIn
2013-1-1,29.8,21.1,9.9,26.1,14.2,5.8,86,75,60,30.17,30.03,10,1,10,0.00
2013-1-2,23.8,16.9,8.9,17.2,11.8,5.6,88,80,73,30.25,30.11,9,1,9,0.00
2013-1-3,28.2,21.1,10.4,23.9,14.8,4.2,85,76,68,30.22,30.13,16,2,16,0.00
2013-1-4,27.6,22.8,17.9,21.6,16.9,13.4,84,78,70,30.24,30.12,22,5,22,0.00
2013-1-5,33.7,26.7,18.7,29.8,21.6,15.5,90,81,67,30.32,30.07,16,2,16,0.02
2013-1-6,35.7,32.9,29.8,31.3,28.4,25.4,88,83,77,30.28,29.94,21,3,21,0.07
2013-1-7,35.2,30.7,24.9,26.7,24.3,20.4,85,77,67,30.42,30.18,19,3,19,0.02
2013-1-8,38.9,30.7,25.1,28.1,24.6,20.4,87,78,63,30.28,30.18,13,1,13,0.03
2013-1-9,45.6,37.4,27.2,34.6,30.0,22.0,88,75,58,30.48,30.06,19,3,19,0.01
2013-1-10,42.9,32.1,22.4,32.8,27.0,19.6,91,82,62,30.58,30.15,12,1,12,0.06
2013-1-11,58.2,46.2,35.3,52.8,43.0,32.2,95,89,80,30.16,29.77,19,2,19,0.77
2013-1-12,58.9,52.0,46.5,52.8,48.0,43.7,94,86,80,29.95,29.76,17,2,17,0.18
2013-1-13,52.2,40.2,31.1,50.5,38.3,28.1,94,93,89,30.07,29.68,20,2,20,1.52
2013-1-14,31.0,24.8,18.4,28.1,19.0,15.1,89,78,70,30.45,30.07,22,2,22,0.00
2013-1-15,31.3,22.7,14.0,20.9,16.7,11.1,89,78,61,30.46,30.16,7,0,7,0.00
2013-1-16,36.2,28.7,21.8,26.8,22.2,18.4,89,77,58,30.16,29.87,19,3,19,0.00
2013-1-17,39.7,30.8,18.9,29.2,22.5,9.0,90,72,52,30.34,30.00,21,3,21,0.00
2013-1-18,36.2,28.0,19.0,24.2,18.5,10.2,80,67,56,30.46,30.03,25,4,25,0.00
2013-1-19,47.9,41.6,35.8,34.6,29.8,24.1,76,63,55,30.04,29.64,27,8,27,0.00
2013-1-20,41.3,24.5,18.4,34.3,13.1,6.8,76,61,50,30.20,29.64,34,8,34,0.00
2013-1-21,19.5,15.7,8.4,10.9,6.7,0.2,79,67,52,30.17,29.99,27,5,27,0.00
2013-1-22,12.1,5.5,-0.1,4.7,-1.4,-6.9,88,73,66,30.35,30.15,19,2,19,0.00
2013-1-23,18.0,11.6,3.7,11.7,4.2,-2.3,84,72,55,30.35,30.10,18,1,18,0.00
2013-1-24,20.1,13.3,5.4,11.2,5.8,0.9,85,72,48,30.62,30.13,12,1,12,0.00
2013-1-25,21.2,18.6,16.1,17.4,12.4,7.7,88,77,68,30.53,30.04,9,0,9,0.01
2013-1-26,26.2,22.4,15.2,19.6,16.5,10.7,88,78,63,30.47,30.08,14,1,14,0.00
2013-1-27,31.1,23.1,12.5,26.8,17.1,8.8,87,78,65,30.50,30.13,15,1,15,0.01
2013-1-28,47.3,40.8,31.1,45.7,39.0,26.5,96,93,83,30.16,29.89,24,3,24,0.11
2013-1-29,58.7,50.0,37.0,54.8,47.8,35.5,96,92,85,30.02,29.45,22,4,22,0.24
2013-1-30,62.6,50.7,32.8,57.3,47.4,26.1,94,88,76,29.45,29.12,31,6,31,0.66
2013-1-31,32.8,22.7,16.0,26.4,15.4,8.0,87,73,56,29.93,29.31,33,9,33,0.00
2013-2-1,19.4,14.3,11.0,9.6,7.0,4.5,81,73,60,30.33,29.93,28,6,28,0.00
2013-2-2,23.8,17.8,11.0,19.2,13.4,6.4,87,82,71,30.28,29.97,16,2,16,0.00
2013-2-3,21.5,13.8,2.2,15.2,9.2,-1.0,96,82,72,30.07,29.91,18,2,18,0.02
2013-2-4,26.3,20.8,17.2,22.0,16.9,12.4,89,85,80,30.07,29.88,9,0,9,0.02
2013-2-5,28.1,23.4,19.0,25.0,19.3,16.0,90,84,70,29.98,29.84,11,1,11,0.01
2013-2-6,31.2,22.8,7.8,25.3,14.9,4.2,89,72,53,30.33,29.98,18,1,18,0.01
2013-2-7,43.8,31.0,23.3,30.4,23.9,16.6,90,75,58,30.29,29.83,16,2,16,0.08
2013-2-8,32.0,27.0,17.2,29.9,23.3,13.7,92,86,75,30.36,29.75,8,0,8,0.18
2013-2-9,34.1,21.5,9.9,21.0,15.6,6.8,88,79,56,30.48,30.30,10,0,10,0.01
2013-2-10,44.4,33.8,20.7,39.4,26.4,17.2,87,75,58,30.30,29.69,21,2,21,0.02
2013-2-11,46.7,37.8,31.9,43.2,31.2,23.8,91,77,67,29.92,29.59,32,7,32,0.01
2013-2-12,34.7,31.6,29.8,26.4,24.3,23.0,80,74,66,30.08,29.92,24,3,24,0.00
2013-2-13,37.7,29.9,26.0,27.5,23.5,20.4,88,77,65,29.94,29.75,10,1,10,0.00
2013-2-14,41.4,35.4,27.9,35.4,30.0,24.5,91,81,70,29.89,29.70,25,3,25,0.00
2013-2-15,33.8,29.0,22.6,26.1,20.1,13.4,84,70,54,30.15,29.89,20,3,20,0.00
2013-2-16,26.9,21.3,15.7,20.0,14.8,9.0,85,76,60,30.13,30.00,18,2,18,0.00
2013-2-17,25.7,18.1,11.9,13.6,9.3,6.4,88,69,46,30.24,30.08,15,2,15,0.00
2013-2-18,49.6,34.0,15.6,35.9,23.0,9.4,76,64,51,30.24,29.61,20,3,20,0.00
2013-2-19,46.5,27.3,17.0,40.4,21.8,10.3,90,80,65,30.00,29.46,33,8,33,0.21
2013-2-20,22.2,19.9,16.8,15.5,12.4,9.4,83,73,61,30.28,30.00,22,5,22,0.00
2013-2-21,26.6,22.9,20.9,18.0,15.7,13.7,79,74,67,30.40,30.25,14,2,14,0.00
2013-2-22,34.4,28.5,22.1,32.6,25.3,16.8,93,88,78,30.26,29.90,20,3,20,0.09
2013-2-23,33.9,30.0,26.9,30.7,23.0,19.3,88,75,63,29.96,29.90,20,2,20,0.34
2013-2-24,36.6,28.8,22.5,26.6,22.5,17.3,86,77,64,30.17,29.92,20,2,20,0.00
2013-2-25,41.6,30.2,19.4,28.7,22.7,15.6,89,75,54,30.24,30.07,14,1,14,0.00
2013-2-26,34.3,31.9,29.4,32.0,27.8,23.7,93,85,73,30.10,29.45,26,4,26,1.55
2013-2-27,35.2,33.5,31.5,33.7,31.7,29.7,94,93,92,29.60,29.43,13,2,13,0.31
2013-2-28,37.8,33.5,30.9,34.0,30.2,27.6,96,88,77,29.95,29.57,20,2,20,0.09
2013-3-1,30.9,27.9,25.8,28.0,22.2,19.2,89,79,75,30.12,29.95,15,3,15,0.00
2013-3-2,27.4,25.6,24.0,21.3,19.5,17.0,84,77,74,30.10,30.06,15,2,15,0.00
2013-3-3,30.2,24.2,19.7,19.2,16.1,13.7,85,71,53,30.08,30.02,13,2,13,0.00
2013-3-4,36.0,26.1,15.0,22.3,17.7,11.1,86,71,52,30.18,30.08,10,0,10,0.00
2013-3-5,32.4,28.3,24.7,25.7,22.8,20.3,86,80,70,30.13,29.78,22,4,22,0.00
2013-3-6,41.0,33.0,26.7,30.2,26.7,22.7,86,78,63,30.22,29.79,19,2,19,0.00
2013-3-7,38.2,33.9,30.2,30.7,27.1,21.3,91,76,64,30.40,30.20,13,1,13,0.00
2013-3-8,46.7,33.1,22.3,28.2,23.5,18.2,86,69,46,30.50,30.39,7,0,7,0.00
2013-3-9,48.9,36.3,25.2,33.9,28.2,21.6,88,74,50,30.42,30.03,12,1,12,0.00
2013-3-10,65.5,52.2,36.4,46.2,38.6,31.2,82,61,44,30.03,29.77,22,2,22,0.00
2013-3-11,56.3,49.4,37.0,48.1,43.3,31.5,92,80,62,29.81,29.46,28,4,28,0.26
2013-3-12,36.9,33.9,30.0,32.1,28.4,24.6,88,80,69,29.95,29.72,23,4,23,0.00
2013-3-13,31.9,29.0,25.9,27.5,21.1,16.2,87,72,60,30.24,29.89,24,5,24,0.00
2013-3-14,42.7,30.9,21.3,25.6,20.4,15.7,83,66,46,30.29,30.11,16,2,16,0.00
2013-3-15,44.9,36.5,30.4,37.7,30.7,21.8,91,80,67,30.11,29.82,13,2,13,0.04
2013-3-16,35.3,31.4,29.5,32.9,28.4,24.8,92,88,80,30.06,29.71,14,2,15,0.06
2013-3-17,34.7,28.7,24.1,25.1,20.3,16.8,80,71,54,30.26,30.06,17,2,17,0.00
2013-3-18,37.4,32.4,27.5,35.6,28.7,20.3,93,86,74,30.17,29.56,20,4,20,0.05
2013-3-19,34.4,28.2,23.0,31.5,18.9,14.6,89,68,52,29.98,29.66,30,8,30,0.00
2013-3-20,30.7,25.3,17.9,19.0,15.0,10.6,78,65,51,29.98,29.92,23,4,23,0.00
2013-3-21,32.0,24.0,15.2,22.5,16.9,10.9,84,74,60,29.98,29.91,23,4,23,0.00
2013-3-22,43.2,32.0,25.9,24.3,20.5,17.1,78,63,45,30.03,29.96,17,3,17,0.00
2013-3-23,40.0,30.2,20.5,26.4,22.3,16.8,87,73,54,30.10,30.02,9,0,9,0.00
2013-3-24,35.9,30.7,24.5,26.8,24.0,20.6,87,76,63,30.03,29.57,21,4,21,0.00
2013-3-25,37.2,32.8,29.6,32.7,27.9,24.2,90,82,71,29.91,29.51,16,2,16,0.05
2013-3-26,44.2,36.4,32.6,31.9,29.1,26.9,84,75,58,30.14,29.90,14,2,14,0.00
2013-3-27,45.2,37.9,30.3,29.8,26.6,23.0,85,65,44,30.23,30.13,22,4,22,0.00
2013-3-28,52.4,40.4,28.4,29.4,25.5,21.4,76,57,39,30.28,30.22,17,2,17,0.00
2013-3-29,52.9,39.5,26.2,26.9,23.3,20.1,80,55,29,30.30,30.19,14,1,14,0.00
2013-3-30,56.4,42.3,25.5,32.1,25.7,20.0,82,55,31,30.23,29.93,14,1,15,0.00
2013-3-31,60.9,48.3,41.3,45.4,35.4,29.9,87,63,36,29.93,29.62,24,3,24,0.00
2013-4-1,45.0,34.4,24.8,32.8,18.5,12.5,79,54,33,30.13,29.70,22,5,22,0.00
2013-4-2,42.9,31.3,21.1,19.6,14.4,11.4,77,52,30,30.26,30.12,22,3,22,0.00
2013-4-3,45.0,32.3,20.3,21.4,14.6,11.2,75,50,28,30.43,30.26,17,2,17,0.00
2013-4-4,57.2,39.5,24.0,21.2,16.5,12.4,67,43,18,30.38,29.95,12,1,12,0.00
2013-4-5,51.4,42.5,34.8,31.9,24.2,16.4,74,50,26,30.20,29.93,19,2,19,0.00
2013-4-6,57.0,44.8,33.5,27.4,22.4,14.3,72,43,29,30.26,29.77,18,2,18,0.00
2013-4-7,61.4,55.3,41.9,45.8,38.6,25.8,70,54,32,30.00,29.64,28,6,30,0.00
2013-4-8,70.6,52.1,39.8,56.8,43.5,33.2,92,73,57,30.02,29.70,18,3,27,0.13
2013-4-9,60.8,48.6,39.8,48.8,42.6,37.0,93,80,63,30.07,29.83,11,1,12,0.01
2013-4-10,48.6,45.2,41.7,46.7,43.1,40.1,94,92,88,29.95,29.78,20,2,27,0.95
2013-4-11,41.7,38.8,37.1,40.1,36.9,34.6,94,93,90,30.00,29.58,28,6,28,1.20
2013-4-12,41.7,39.4,36.9,39.2,35.8,32.8,95,87,75,29.81,29.50,22,4,22,0.36
2013-4-13,42.9,39.4,37.2,36.5,32.6,29.4,87,76,63,30.00,29.81,25,4,30,0.00
2013-4-14,51.0,41.6,34.3,40.1,34.4,29.0,90,76,62,30.12,29.92,17,2,17,0.01
2013-4-15,69.6,55.6,35.2,54.8,46.6,32.8,93,73,56,29.96,29.85,23,2,23,0.00
2013-4-16,62.3,54.3,48.1,52.8,47.9,41.2,94,80,54,30.19,29.84,15,1,15,0.50
2013-4-17,53.6,48.0,43.5,42.3,36.0,32.4,82,64,48,30.30,30.04,22,4,22,0.05
2013-4-18,79.3,59.8,44.3,65.2,53.6,39.9,94,81,58,30.04,29.56,38,5,38,0.89
2013-4-19,59.1,44.7,36.3,57.5,39.6,30.0,95,82,68,29.80,29.33,31,6,31,0.26
2013-4-20,44.2,35.9,28.1,30.9,25.4,21.0,89,67,46,30.45,29.80,24,5,24,0.03
2013-4-21,48.8,36.5,23.0,34.3,27.2,19.9,90,70,52,30.62,30.44,16,2,16,0.00
2013-4-22,61.9,47.2,30.5,38.9,33.3,27.5,91,62,34,30.46,30.17,15,1,15,0.00
2013-4-23,71.3,55.5,39.2,53.9,43.4,34.0,94,67,38,30.17,29.78,27,2,27,0.37
2013-4-24,55.9,41.8,34.4,53.8,38.4,28.7,94,88,67,30.17,29.69,21,4,21,0.69
2013-4-25,52.1,41.7,33.5,42.0,32.8,27.6,85,71,44,30.36,30.14,16,3,22,0.05
2013-4-26,60.9,45.1,28.5,38.7,32.9,26.1,93,66,40,30.47,30.34,13,1,13,0.00
2013-4-27,70.4,52.8,34.1,45.1,37.3,31.2,92,60,31,30.36,30.08,14,1,14,0.00
2013-4-28,58.1,53.4,48.9,56.4,49.4,38.8,94,87,64,30.08,29.80,12,0,12,0.32
2013-4-29,71.3,60.0,52.7,56.7,53.7,51.3,96,81,54,29.93,29.81,12,1,12,0.01
2013-4-30,74.5,63.4,52.2,58.9,54.5,49.8,93,74,54,30.04,29.92,17,1,17,0.00
2013-5-1,83.6,67.2,52.1,61.4,55.5,49.3,92,68,42,30.20,30.03,9,1,13,0.00
2013-5-2,79.8,64.0,49.4,57.8,51.6,46.3,93,67,42,30.21,30.10,17,1,17,0.00
2013-5-3,79.5,65.5,54.8,59.7,51.2,44.4,84,62,35,30.10,29.99,17,1,17,0.00
2013-5-4,68.6,61.6,53.9,49.4,45.5,39.8,74,56,38,30.08,30.00,17,2,17,0.00
2013-5-5,70.2,60.6,52.4,50.8,45.6,40.9,79,59,35,30.06,29.98,15,1,15,0.00
2013-5-6,70.1,59.7,47.9,51.9,46.9,42.5,85,64,49,30.02,29.94,12,1,12,0.00
2013-5-7,73.3,60.1,45.6,57.0,50.0,41.7,89,71,49,30.03,29.96,15,1,15,0.00
2013-5-8,78.7,64.8,52.1,57.2,51.7,48.0,87,65,41,29.99,29.90,16,0,16,0.00
2013-5-9,81.8,67.7,52.1,58.6,52.2,47.5,92,61,32,29.95,29.86,11,0,11,0.00
2013-5-10,72.8,61.9,45.0,62.4,55.9,40.8,93,81,63,29.90,29.69,21,1,21,0.32
2013-5-11,55.4,45.0,38.3,47.6,39.5,32.6,87,81,66,29.93,29.77,24,1,24,0.00
2013-5-12,51.4,41.2,34.1,33.6,31.2,25.5,86,69,46,30.11,29.91,24,3,24,0.00
2013-5-13,57.7,43.4,28.6,33.1,26.7,22.5,86,56,28,30.19,30.09,16,1,16,0.00
2013-5-14,80.6,60.7,42.2,58.3,44.5,29.9,71,56,39,30.11,29.69,22,1,22,0.00
2013-5-15,86.2,75.0,62.2,61.0,54.1,45.9,77,51,26,29.75,29.59,24,3,24,0.00
2013-5-16,84.3,68.3,49.2,53.4,46.9,42.8,81,50,26,29.95,29.74,13,1,13,0.00
2013-5-17,71.1,60.5,49.0,50.0,44.4,38.5,76,56,39,30.10,29.96,15,1,15,0.00
2013-5-18,74.5,62.4,52.2,55.5,49.7,44.4,84,64,47,30.12,30.01,12,1,12,0.00
2013-5-19,86.8,70.0,53.0,67.7,59.1,48.5,90,70,46,30.01,29.86,5,0,10,0.00
2013-5-20,90.8,77.2,63.5,71.7,65.3,60.5,91,69,43,29.90,29.75,21,1,21,0.00
2013-5-21,87.3,77.8,69.7,67.1,63.3,58.9,85,63,40,29.80,29.67,22,1,22,0.00
2013-5-22,82.9,71.8,63.1,66.6,62.5,58.1,89,74,48,29.73,29.61,23,2,23,0.02
2013-5-23,68.0,57.2,45.2,60.5,53.1,41.3,91,86,72,30.14,29.68,19,1,19,0.08
2013-5-24,45.9,44.8,42.4,41.9,40.7,38.5,86,85,85,30.15,30.13,7,0,7,0.00
2013-5-28,74.5,73.9,73.3,67.6,66.4,64.5,82,78,73,29.84,29.81,20,2,20,0.49
2013-5-29,85.8,77.0,69.6,70.7,65.3,61.5,79,68,53,29.97,29.82,22,2,22,0.01
2013-5-30,89.0,76.0,66.1,72.0,65.8,60.7,85,72,52,30.04,29.92,21,1,21,0.05
2013-5-31,81.4,75.3,69.9,70.6,67.6,64.4,90,78,67,29.94,29.84,23,2,23,0.00
2013-6-1,79.3,70.2,62.7,68.9,64.6,60.8,95,83,64,29.88,29.68,19,1,19,0.57
2013-6-2,73.5,65.8,55.9,65.5,58.7,47.7,93,79,60,29.95,29.66,17,2,17,0.08
2013-6-3,69.5,65.4,55.3,48.1,42.3,36.2,75,44,35,30.05,29.95,11,0,11,0.00
2013-6-4,72.1,63.8,45.4,52.8,48.9,42.6,92,60,47,30.18,30.11,13,0,13,0.00
2013-6-5,73.0,61.9,50.6,53.6,47.0,40.3,78,60,32,30.15,29.95,14,1,14,0.00
2013-6-6,70.8,61.3,54.8,57.5,50.7,44.3,84,68,58,29.96,29.81,13,0,13,0.00
2013-6-7,62.1,56.1,49.8,53.7,50.8,47.0,92,83,72,29.89,29.84,9,0,9,0.00
2013-6-8,76.4,63.4,54.0,59.2,53.7,49.9,90,72,46,30.04,29.89,12,0,12,0.00
2013-6-9,77.8,67.1,58.4,65.6,58.2,52.1,81,73,61,30.07,29.92,16,1,16,0.00
2013-6-10,74.4,67.0,64.0,70.1,64.6,61.9,95,92,82,29.81,29.70,16,0,16,1.54
2013-6-11,84.2,72.9,63.8,68.1,65.1,62.2,95,78,55,29.89,29.74,12,1,12,0.00
2013-6-12,82.7,71.5,62.9,70.9,65.6,60.8,94,82,63,29.88,29.59,11,0,11,0.05
2013-6-13,78.7,69.1,61.2,64.6,60.2,54.6,96,75,46,29.88,29.46,18,1,18,1.18
2013-6-14,79.1,67.5,58.5,60.8,57.4,53.1,92,72,46,30.05,29.88,10,0,10,0.01
2013-6-15,81.3,67.6,56.9,64.8,59.7,53.2,91,77,47,30.08,29.91,12,0,12,0.00
2013-6-16,84.3,72.8,63.8,69.7,64.4,59.0,94,77,53,29.91,29.80,18,1,18,0.49
2013-6-17,87.2,77.1,60.9,71.4,64.4,58.4,94,67,42,29.90,29.81,12,1,12,0.00
2013-6-18,73.7,67.3,57.1,63.3,58.0,51.6,90,73,52,30.04,29.84,10,1,10,0.00
2013-6-19,74.8,62.5,46.8,57.2,50.0,42.7,86,66,38,30.15,30.03,7,0,7,0.00
2013-6-20,85.6,68.6,50.9,60.8,54.0,47.8,91,63,34,30.20,30.11,9,0,9,0.00
2013-6-21,88.4,75.6,63.3,67.6,60.5,54.9,83,61,37,30.19,30.02,12,0,12,0.00
2013-6-22,91.5,76.5,68.7,76.1,67.5,58.2,94,75,52,30.08,29.93,16,1,16,0.84
2013-6-23,90.7,77.1,68.1,74.9,69.2,63.8,95,79,51,30.07,29.94,19,1,19,0.13
2013-6-24,88.5,76.9,65.9,74.2,69.2,64.1,95,79,58,30.06,29.88,13,1,15,0.07
2013-6-25,90.1,76.0,66.3,76.9,69.4,63.8,94,81,59,29.99,29.77,23,1,23,0.64
2013-6-26,84.7,72.6,65.0,72.6,67.8,63.2,95,86,62,29.92,29.70,16,0,16,0.81
2013-6-27,86.4,72.9,66.3,73.3,68.7,63.0,95,88,62,29.73,29.60,16,0,16,0.58
2013-6-28,81.3,70.1,63.6,68.7,65.1,59.2,96,85,58,29.60,29.49,21,1,21,0.54
2013-6-30,69.4,67.2,64.9,60.7,60.1,59.3,82,78,72,29.89,29.88,3,0,4,0.24
2013-7-1,66.5,62.6,59.2,60.0,56.3,51.7,93,80,73,29.98,29.88,10,0,10,0.43
2013-7-2,72.2,66.6,60.8,65.7,62.5,58.2,92,87,77,30.04,29.98,11,0,11,0.02
2013-7-3,84.2,71.9,63.3,70.4,65.9,61.5,95,83,58,30.08,30.00,9,0,10,0.00
2013-7-4,70.7,69.2,68.5,66.6,65.9,65.5,91,89,86,30.06,30.05,3,0,3,0.00
2013-7-5,83.4,77.1,67.6,71.2,68.0,65.3,94,75,58,30.09,30.02,6,0,6,0.02
2013-7-6,82.3,74.2,68.0,73.0,69.9,65.9,95,87,65,30.09,29.96,7,0,7,0.41
2013-7-7,78.7,71.1,66.2,71.3,67.4,64.3,95,88,73,30.03,29.95,11,0,11,0.15
2013-7-8,84.2,72.7,66.1,76.6,69.4,64.0,95,90,76,30.03,29.95,12,0,12,0.30
2013-7-9,88.4,75.3,69.7,78.4,71.7,67.9,96,89,69,29.97,29.89,10,0,10,0.01
2013-7-10,87.3,76.3,64.7,78.6,70.6,60.7,95,83,61,29.91,29.74,20,1,20,0.20
2013-7-11,79.5,69.5,61.8,60.8,58.8,55.5,91,71,46,30.03,29.90,10,0,11,0.00
2013-7-12,80.0,68.5,56.0,65.3,59.8,53.7,93,75,50,30.13,30.03,12,0,12,0.00
2013-7-13,81.5,74.7,62.6,68.8,65.7,59.1,92,75,57,30.18,30.09,12,1,12,0.00
2013-7-14,87.2,78.4,66.1,74.7,69.9,63.6,95,76,59,30.22,30.16,10,0,10,0.00
2013-7-15,93.0,82.5,71.9,79.2,73.5,69.2,93,75,56,30.26,30.18,7,0,7,0.00
2013-7-16,91.8,82.3,75.0,78.3,74.7,72.0,92,79,60,30.28,30.19,10,0,10,0.00
2013-7-17,94.6,82.3,71.9,79.1,74.0,69.4,93,77,56,30.26,30.12,13,0,13,0.00
2013-7-18,94.4,83.1,72.4,79.8,74.8,70.3,94,78,55,30.14,29.93,12,0,12,0.00
2013-7-19,93.2,83.7,75.2,77.4,73.9,70.8,89,74,53,29.95,29.71,20,1,20,0.00
2013-7-20,86.8,77.5,68.5,75.0,69.7,63.7,95,78,50,29.88,29.69,23,1,23,0.75
2013-7-21,84.8,73.7,65.4,68.8,64.8,62.2,92,75,56,29.96,29.87,6,0,6,0.00
2013-7-22,80.3,71.9,67.9,71.4,66.9,64.1,92,84,65,29.92,29.73,5,0,5,0.10
2013-7-23,86.8,72.6,61.3,73.3,66.3,54.2,95,82,56,29.84,29.64,16,1,17,0.03
2013-7-24,73.3,62.6,51.2,57.0,52.8,48.6,92,72,48,30.02,29.84,11,0,11,0.00
2013-7-25,79.6,65.1,50.6,59.1,53.4,47.8,92,68,41,30.10,30.02,7,0,7,0.00
2013-7-26,79.9,63.7,54.1,63.2,56.4,51.8,94,79,48,30.09,29.99,10,0,10,0.00
2013-7-27,75.3,65.0,56.6,70.1,57.9,52.3,86,78,69,29.86,29.70,17,1,17,0.78
2013-7-28,68.8,59.1,50.9,55.8,51.8,49.0,93,78,59,30.00,29.84,20,1,24,0.00
2013-7-29,73.7,61.8,52.8,59.9,54.7,49.7,90,79,57,30.17,29.99,14,1,16,0.00
2013-7-30,79.8,68.9,52.5,63.5,59.2,50.2,95,73,51,30.22,30.10,7,0,7,0.00
2013-7-31,79.3,70.2,65.2,68.2,64.7,60.9,94,83,66,30.10,29.87,10,0,10,0.43
2013-8-1,79.8,69.3,59.6,69.1,62.3,55.1,95,80,50,29.92,29.85,7,1,14,0.13
2013-8-2,71.4,62.5,54.0,66.2,58.4,51.7,93,87,77,29.95,29.83,13,0,13,0.11
2013-8-3,80.2,74.1,60.4,65.2,59.2,54.9,95,62,46,29.98,29.94,12,1,12,0.00
2013-8-4,75.0,67.3,53.3,58.6,55.8,50.7,92,68,49,30.15,30.08,14,1,14,0.00
2013-8-5,73.8,64.8,54.3,60.3,56.6,51.7,92,76,50,30.10,29.94,7,0,7,0.00
2013-8-6,81.0,70.1,63.9,67.8,63.1,58.2,89,79,60,29.95,29.87,12,0,12,0.00
2013-8-7,83.5,72.5,65.4,74.2,68.3,63.3,94,87,69,29.91,29.81,11,0,11,0.49
2013-8-8,74.6,70.6,65.7,69.6,66.2,63.3,94,86,77,29.97,29.86,9,0,9,0.01
2013-8-9,82.5,71.0,62.3,65.3,60.1,55.6,86,70,46,30.00,29.91,7,0,7,0.00
2013-8-10,77.5,69.1,62.1,66.8,62.3,59.5,92,80,64,30.10,29.99,7,0,7,0.00
2013-8-11,83.8,73.9,54.7,63.9,60.5,53.0,95,65,45,30.11,30.00,8,0,9,0.00
2013-8-12,80.0,69.6,64.7,70.2,64.4,60.0,91,84,68,30.05,29.81,18,0,18,0.17
2013-8-13,70.3,62.9,53.5,63.3,55.0,47.5,96,77,50,30.04,29.80,15,1,15,0.01
2013-8-14,71.6,58.2,45.2,53.8,48.7,42.5,92,73,46,30.17,30.04,13,0,13,0.00
2013-8-15,76.7,59.7,47.0,56.1,50.4,45.1,94,75,41,30.18,30.08,7,0,7,0.01
2013-8-18,81.5,73.9,60.8,66.9,59.1,53.3,95,62,41,30.19,30.09,10,0,10,0.00
2013-8-19,85.5,69.8,56.0,65.0,59.8,53.7,94,74,45,30.11,30.01,11,0,11,0.00
2013-8-20,87.8,72.8,59.0,69.1,63.5,57.0,95,75,48,30.14,30.05,11,0,11,0.00
2013-8-21,88.5,75.1,63.9,71.6,66.3,61.2,92,76,51,30.13,29.97,11,0,11,0.00
2013-8-22,80.1,71.0,68.1,70.4,66.6,64.8,91,86,69,30.02,29.94,12,0,12,0.00
2013-8-24,74.2,67.0,62.5,58.7,57.8,56.5,85,73,57,30.26,30.24,5,0,5,0.00
2013-8-25,89.2,74.6,54.8,66.9,62.1,52.8,94,68,44,30.29,30.14,12,0,12,0.00
2013-8-26,90.0,75.7,63.2,71.8,65.9,59.3,88,73,52,30.17,29.96,15,1,15,0.00
2013-8-27,84.8,77.1,71.5,76.6,72.2,68.1,94,85,75,29.98,29.81,12,0,12,0.19
2013-8-28,83.3,76.5,70.3,75.3,72.0,68.1,95,86,72,29.96,29.77,11,0,23,0.18
2013-8-29,87.0,73.6,64.0,72.5,66.9,62.5,96,82,54,30.06,29.95,7,0,7,0.01
2013-8-30,89.8,79.2,61.6,72.9,69.2,59.9,96,73,52,29.96,29.72,13,1,13,0.00
2013-8-31,86.2,74.7,65.2,72.2,68.6,63.4,95,83,56,29.81,29.69,11,0,11,0.33
2013-9-1,83.2,74.6,68.6,72.7,69.7,66.7,95,85,69,29.80,29.69,10,0,10,0.23
2013-9-2,79.6,71.3,58.7,68.9,62.0,52.8,95,74,50,29.89,29.73,18,1,18,0.15
2013-9-3,75.9,63.8,57.1,58.5,54.0,50.0,90,71,50,30.01,29.89,15,1,15,0.00
2013-9-4,83.6,69.8,52.0,61.8,57.5,50.3,95,68,40,30.09,30.00,22,1,22,0.01
2013-9-5,73.0,63.7,55.5,58.2,51.8,41.1,93,68,37,30.23,30.06,12,0,12,0.00
2013-9-6,79.1,61.8,46.4,57.7,50.5,44.2,94,70,34,30.27,30.06,6,0,6,0.00
2013-9-7,83.5,68.0,55.1,68.9,58.8,47.8,85,73,53,30.07,29.88,15,0,15,0.00
2013-9-8,75.8,69.1,65.0,66.1,63.5,61.2,92,83,62,30.04,29.90,11,0,11,0.00
2013-9-9,84.0,69.7,56.3,73.2,65.3,54.0,94,86,68,30.03,29.88,7,0,7,0.45
2013-9-10,97.3,82.3,73.4,74.9,70.1,64.7,91,69,38,30.00,29.89,14,1,14,0.00
2013-9-11,95.8,79.9,69.4,74.6,69.2,65.7,90,72,41,30.03,29.88,21,1,21,0.00
2013-9-12,69.8,68.4,66.2,67.4,66.1,64.1,94,92,91,29.93,29.87,9,0,9,0.12